Time;durP1;ratioP1;P1;durP2;ratioP2;P2;SDS_P1;SDS_P2;PMS_P1;PMS_P2;Temp;Humidity;BMP_temperature;BMP_pressure;BME280_temperature;BME280_humidity;BME280_pressure;Samples;Min_cycle;Max_cycle;Signal;HPM_P1;HPM_P2
2021/12/08 00:00:36;;;;;;;4.15;2.17;;;;;;;;;;5023642;28;20046;-66
2021/12/08 00:03:04;;;;;;;4.35;2.10;;;;;;;;;;5022714;28;20053;-66
2021/12/08 00:05:31;;;;;;;5.60;2.22;;;;;;;;;;5016594;28;20050;-66
2021/12/08 00:07:59;;;;;;;4.43;2.33;;;;;;;;;;5019422;28;20463;-66
2021/12/08 00:13:03;;;;;;;4.65;1.75;;;;;;;;;;5020889;28;20054;-66
2021/12/08 00:15:34;;;;;;;5.20;1.95;;;;;;;;;;5023540;28;20049;-67
2021/12/08 00:18:02;;;;;;;4.22;2.42;;;;;;;;;;5024573;28;20393;-66
2021/12/08 00:20:32;;;;;;;4.10;1.60;;;;;;;;;;5019944;28;20091;-67
2021/12/08 00:22:59;;;;;;;3.55;2.05;;;;;;;;;;5016424;28;20049;-66
2021/12/08 00:25:26;;;;;;;3.72;1.98;;;;;;;;;;5016898;28;20068;-66
2021/12/08 00:27:53;;;;;;;2.38;1.58;;;;;;;;;;5022762;28;20049;-66
2021/12/08 00:30:20;;;;;;;2.83;1.95;;;;;;;;;;5019317;28;20050;-66
2021/12/08 00:32:47;;;;;;;4.03;1.80;;;;;;;;;;5016358;28;20097;-66
2021/12/08 00:35:13;;;;;;;3.90;1.75;;;;;;;;;;5020601;28;20108;-66
2021/12/08 00:37:40;;;;;;;2.53;1.70;;;;;;;;;;5018229;28;20081;-66
2021/12/08 00:40:09;;;;;;;3.17;1.58;;;;;;;;;;5023162;28;20452;-66
2021/12/08 00:42:36;;;;;;;4.38;1.83;;;;;;;;;;5022317;28;20053;-66
2021/12/08 00:45:07;;;;;;;3.13;1.75;;;;;;;;;;5021290;28;20505;-66
2021/12/08 00:47:34;;;;;;;3.47;1.90;;;;;;;;;;5022084;28;20504;-66
2021/12/08 00:50:01;;;;;;;1.73;1.35;;;;;;;;;;5014675;28;20493;-66
2021/12/08 00:52:29;;;;;;;2.80;1.48;;;;;;;;;;5018692;28;20540;-66
2021/12/08 00:54:56;;;;;;;2.80;1.40;;;;;;;;;;5024036;28;20041;-66
2021/12/08 00:57:22;;;;;;;5.90;1.67;;;;;;;;;;5021924;28;20050;-66
2021/12/08 00:59:49;;;;;;;3.63;1.90;;;;;;;;;;5012999;28;20076;-64
2021/12/08 01:02:24;;;;;;;4.88;2.08;;;;;;;;;;5011748;28;20421;-64
2021/12/08 01:04:51;;;;;;;4.30;1.90;;;;;;;;;;5011423;28;20064;-64
2021/12/08 01:07:17;;;;;;;4.38;2.05;;;;;;;;;;5011980;28;20468;-65
2021/12/08 01:09:44;;;;;;;3.08;1.90;;;;;;;;;;5011932;28;20103;-64
2021/12/08 01:12:11;;;;;;;4.10;1.85;;;;;;;;;;5011903;28;20054;-64
2021/12/08 01:14:37;;;;;;;6.28;1.73;;;;;;;;;;5011999;28;20663;-64
2021/12/08 01:17:04;;;;;;;3.20;1.45;;;;;;;;;;5011644;28;20477;-65
2021/12/08 01:19:31;;;;;;;3.30;1.48;;;;;;;;;;5011763;28;20559;-65
2021/12/08 01:21:58;;;;;;;2.13;1.30;;;;;;;;;;5011819;28;20308;-64
2021/12/08 01:24:25;;;;;;;2.42;1.30;;;;;;;;;;5011725;28;20054;-64
2021/12/08 01:26:51;;;;;;;5.60;1.58;;;;;;;;;;5011881;28;20053;-65
2021/12/08 01:29:18;;;;;;;2.67;1.70;;;;;;;;;;5011790;28;20053;-64
2021/12/08 01:31:45;;;;;;;5.38;1.75;;;;;;;;;;5011707;28;20096;-64
2021/12/08 01:34:12;;;;;;;2.55;1.38;;;;;;;;;;5011649;28;20461;-65
2021/12/08 01:36:39;;;;;;;4.72;2.08;;;;;;;;;;5011726;28;20132;-65
2021/12/08 01:39:08;;;;;;;4.20;1.98;;;;;;;;;;5011573;28;20050;-65
2021/12/08 01:41:34;;;;;;;3.30;1.75;;;;;;;;;;5011721;28;20045;-65
2021/12/08 01:46:47;;;;;;;5.43;2.42;;;;;;;;;;4991844;28;20489;-65
2021/12/08 01:49:14;;;;;;;2.60;1.80;;;;;;;;;;4991866;28;20133;-64
2021/12/08 01:51:40;;;;;;;3.53;2.35;;;;;;;;;;4992005;28;20054;-65
2021/12/08 01:54:07;;;;;;;4.65;2.70;;;;;;;;;;4991818;28;20485;-65
2021/12/08 01:56:35;;;;;;;6.00;2.70;;;;;;;;;;4991754;28;20050;-65
2021/12/08 01:59:04;;;;;;;5.82;3.15;;;;;;;;;;4991801;28;20054;-65
2021/12/08 02:01:32;;;;;;;2.95;2.08;;;;;;;;;;4991958;28;20042;-65
2021/12/08 02:04:04;;;;;;;6.13;1.95;;;;;;;;;;4991732;28;20399;-65
2021/12/08 02:06:32;;;;;;;3.45;1.70;;;;;;;;;;4992157;28;20047;-65
2021/12/08 02:08:59;;;;;;;2.88;1.98;;;;;;;;;;4991901;28;20429;-65
2021/12/08 02:11:26;;;;;;;4.40;1.67;;;;;;;;;;5007954;28;20096;-65
2021/12/08 02:13:59;;;;;;;3.72;1.77;;;;;;;;;;5011216;28;20049;-65
2021/12/08 02:16:27;;;;;;;3.75;1.90;;;;;;;;;;5015003;28;20050;-65
2021/12/08 02:18:54;;;;;;;3.42;1.73;;;;;;;;;;5014803;28;20050;-65
2021/12/08 02:21:29;;;;;;;2.65;1.30;;;;;;;;;;5014956;28;20054;-65
2021/12/08 02:23:59;;;;;;;2.85;1.30;;;;;;;;;;5014570;28;20077;-65
2021/12/08 02:26:27;;;;;;;3.63;1.50;;;;;;;;;;5014655;28;20489;-64
2021/12/08 02:28:55;;;;;;;3.95;1.95;;;;;;;;;;5014615;28;20096;-65
2021/12/08 02:31:33;;;;;;;2.55;1.75;;;;;;;;;;5014550;28;20049;-65
2021/12/08 02:47:55;;;;;;;3.33;2.08;;;;;;;;;;5014300;28;20390;-65
2021/12/08 02:50:39;;;;;;;2.17;1.33;;;;;;;;;;5014253;28;20045;-65
2021/12/08 02:53:06;;;;;;;3.45;2.10;;;;;;;;;;5014027;28;20078;-65
2021/12/08 02:55:33;;;;;;;6.30;2.05;;;;;;;;;;5014191;28;20096;-65
2021/12/08 02:58:01;;;;;;;3.10;1.88;;;;;;;;;;5013907;28;20054;-65
2021/12/08 03:00:30;;;;;;;2.90;1.83;;;;;;;;;;5014218;28;20058;-65
2021/12/08 03:02:59;;;;;;;3.13;1.90;;;;;;;;;;5013800;28;20046;-65
2021/12/08 03:05:26;;;;;;;2.28;1.75;;;;;;;;;;5014124;28;20049;-65
2021/12/08 03:07:53;;;;;;;4.47;1.85;;;;;;;;;;4994335;28;20132;-65
2021/12/08 03:10:24;;;;;;;5.45;1.58;;;;;;;;;;4994285;28;20100;-65
2021/12/08 03:12:51;;;;;;;3.10;2.28;;;;;;;;;;4994177;28;20128;-65
2021/12/08 03:15:18;;;;;;;5.22;2.38;;;;;;;;;;4994266;28;20058;-65
2021/12/08 03:17:44;;;;;;;4.68;2.33;;;;;;;;;;4994096;28;20054;-65
2021/12/08 03:20:15;;;;;;;3.65;2.08;;;;;;;;;;4994215;28;20054;-65
2021/12/08 03:22:46;;;;;;;5.97;2.67;;;;;;;;;;4993982;28;20568;-65
2021/12/08 03:25:16;;;;;;;6.18;2.47;;;;;;;;;;4994240;28;20572;-65
2021/12/08 03:28:04;;;;;;;5.03;1.90;;;;;;;;;;4993349;28;20054;-65
2021/12/08 03:30:38;;;;;;;3.92;2.28;;;;;;;;;;4993928;28;20050;-65
2021/12/08 03:33:05;;;;;;;3.63;2.00;;;;;;;;;;4993798;28;20054;-65
2021/12/08 03:35:31;;;;;;;3.63;1.98;;;;;;;;;;4994226;28;20054;-64
2021/12/08 03:37:59;;;;;;;4.30;1.98;;;;;;;;;;4993605;28;20058;-65
2021/12/08 03:40:26;;;;;;;2.45;2.00;;;;;;;;;;4993948;28;20425;-65
2021/12/08 03:42:54;;;;;;;4.40;1.80;;;;;;;;;;4993369;28;20113;-65
2021/12/08 03:45:32;;;;;;;4.07;1.95;;;;;;;;;;4993954;28;20421;-63
2021/12/08 03:48:04;;;;;;;2.72;1.90;;;;;;;;;;4993529;28;20145;-65
2021/12/08 03:50:32;;;;;;;6.57;2.17;;;;;;;;;;4993552;28;20046;-65
2021/12/08 03:52:59;;;;;;;3.58;1.80;;;;;;;;;;4993308;28;20061;-65
2021/12/08 03:55:26;;;;;;;3.13;1.90;;;;;;;;;;4993673;28;20117;-65
2021/12/08 03:57:52;;;;;;;3.83;2.08;;;;;;;;;;4993282;28;20051;-65
2021/12/08 04:00:23;;;;;;;3.65;2.30;;;;;;;;;;4993490;28;20397;-65
2021/12/08 04:02:50;;;;;;;5.72;2.38;;;;;;;;;;4993291;28;20472;-65
2021/12/08 04:05:19;;;;;;;5.65;2.70;;;;;;;;;;4992970;28;20058;-64
2021/12/08 04:07:47;;;;;;;3.60;2.25;;;;;;;;;;4993473;28;20058;-66
2021/12/08 04:10:19;;;;;;;7.28;2.60;;;;;;;;;;4993509;28;20108;-66
2021/12/08 04:12:52;;;;;;;7.97;2.28;;;;;;;;;;4993210;28;20054;-64
2021/12/08 04:15:20;;;;;;;6.25;2.50;;;;;;;;;;4993090;28;20050;-64
2021/12/08 04:17:49;;;;;;;3.40;2.15;;;;;;;;;;4992848;28;20074;-64
2021/12/08 04:20:26;;;;;;;6.13;2.33;;;;;;;;;;4993239;28;20104;-64
2021/12/08 04:22:54;;;;;;;4.15;2.90;;;;;;;;;;5002827;28;20053;-64
2021/12/08 04:25:25;;;;;;;4.50;2.38;;;;;;;;;;5013279;28;20046;-64
2021/12/08 04:27:52;;;;;;;5.35;2.45;;;;;;;;;;5012472;28;20115;-64
2021/12/08 04:30:29;;;;;;;3.88;2.80;;;;;;;;;;5012431;28;20092;-64
2021/12/08 04:32:56;;;;;;;4.80;2.42;;;;;;;;;;5012262;28;20049;-65
2021/12/08 04:35:23;;;;;;;4.65;2.65;;;;;;;;;;5012615;28;20112;-63
2021/12/08 04:37:54;;;;;;;4.82;2.25;;;;;;;;;;5011246;28;20425;-63
2021/12/08 04:40:57;;;;;;;3.45;2.25;;;;;;;;;;5012459;28;20103;-62
2021/12/08 04:43:40;;;;;;;4.63;2.60;;;;;;;;;;4992733;28;20046;-64
2021/12/08 05:04:39;;;;;;;5.35;3.40;;;;;;;;;;4992346;28;20065;-63
2021/12/08 05:07:30;;;;;;;6.68;4.57;;;;;;;;;;4991198;28;20108;-63
2021/12/08 05:10:04;;;;;;;7.30;4.53;;;;;;;;;;5003823;28;20452;-63
2021/12/08 05:12:33;;;;;;;5.35;3.75;;;;;;;;;;5011990;28;20050;-63
2021/12/08 05:15:05;;;;;;;5.97;3.50;;;;;;;;;;5011744;28;20050;-63
2021/12/08 05:17:58;;;;;;;6.25;3.60;;;;;;;;;;5012127;28;20053;-62
2021/12/08 05:20:31;;;;;;;3.90;3.17;;;;;;;;;;5009137;28;20112;-62
2021/12/08 05:23:06;;;;;;;5.80;3.30;;;;;;;;;;5011678;28;20049;-62
2021/12/08 05:25:36;;;;;;;5.95;3.30;;;;;;;;;;5011945;28;20053;-63
2021/12/08 05:28:06;;;;;;;5.15;3.60;;;;;;;;;;5010335;28;20054;-63
2021/12/08 05:30:43;;;;;;;6.03;2.85;;;;;;;;;;5011768;28;20493;-63
2021/12/08 05:33:11;;;;;;;5.53;3.60;;;;;;;;;;5011570;28;20136;-62
2021/12/08 05:35:40;;;;;;;7.85;3.90;;;;;;;;;;5011684;28;20049;-62
2021/12/08 05:38:07;;;;;;;6.82;3.70;;;;;;;;;;5011652;28;20085;-62
2021/12/08 05:40:50;;;;;;;7.05;3.90;;;;;;;;;;5011837;28;20115;-63
2021/12/08 05:43:17;;;;;;;5.45;4.20;;;;;;;;;;5010379;28;20081;-62
2021/12/08 05:45:44;;;;;;;5.93;4.80;;;;;;;;;;5011869;28;20057;-64
2021/12/08 05:48:11;;;;;;;6.07;4.47;;;;;;;;;;5011633;28;20049;-63
2021/12/08 05:50:52;;;;;;;8.60;5.05;;;;;;;;;;5014872;28;20046;-65
2021/12/08 05:53:19;;;;;;;7.50;4.60;;;;;;;;;;5015563;28;20050;-62
2021/12/08 05:55:46;;;;;;;7.85;5.03;;;;;;;;;;5015301;28;20053;-64
2021/12/08 05:58:14;;;;;;;7.00;4.88;;;;;;;;;;4998118;28;20513;-63
2021/12/08 06:00:55;;;;;;;7.00;5.50;;;;;;;;;;5000504;28;20042;-62
2021/12/08 06:03:22;;;;;;;7.40;5.70;;;;;;;;;;5016118;28;20053;-64
2021/12/08 06:05:50;;;;;;;8.73;5.53;;;;;;;;;;5015595;28;20073;-62
2021/12/08 06:08:17;;;;;;;9.43;5.55;;;;;;;;;;5015188;28;20050;-63
2021/12/08 06:10:45;;;;;;;8.68;5.47;;;;;;;;;;5014749;28;20045;-64
2021/12/08 06:13:14;;;;;;;9.43;5.53;;;;;;;;;;5014840;28;20471;-63
2021/12/08 06:15:42;;;;;;;10.98;6.72;;;;;;;;;;5015048;28;20053;-64
2021/12/08 06:18:10;;;;;;;7.40;5.35;;;;;;;;;;5013225;28;20054;-63
2021/12/08 06:20:36;;;;;;;9.02;5.47;;;;;;;;;;5012759;28;20050;-63
2021/12/08 06:23:06;;;;;;;8.25;5.43;;;;;;;;;;5012488;28;20092;-62
2021/12/08 06:25:34;;;;;;;7.57;4.60;;;;;;;;;;5012449;28;20054;-63
2021/12/08 06:28:01;;;;;;;7.35;4.18;;;;;;;;;;4996100;28;20050;-64
2021/12/08 06:30:30;;;;;;;6.93;3.85;;;;;;;;;;4993118;28;20054;-63
2021/12/08 06:32:57;;;;;;;5.95;4.05;;;;;;;;;;4992448;28;20054;-63
2021/12/08 06:35:40;;;;;;;9.25;4.65;;;;;;;;;;4993345;28;20046;-63
2021/12/08 06:38:08;;;;;;;8.85;4.97;;;;;;;;;;5010452;28;20521;-63
2021/12/08 06:40:39;;;;;;;8.38;4.68;;;;;;;;;;5012694;28;20053;-64
2021/12/08 06:43:08;;;;;;;9.50;4.97;;;;;;;;;;5012429;28;20124;-63
2021/12/08 06:45:39;;;;;;;12.55;5.25;;;;;;;;;;5012232;28;20050;-63
2021/12/08 06:48:10;;;;;;;7.32;5.18;;;;;;;;;;5012357;28;20057;-64
2021/12/08 06:50:45;;;;;;;8.05;5.25;;;;;;;;;;5002537;28;20105;-63
2021/12/08 06:53:12;;;;;;;7.32;4.25;;;;;;;;;;4992475;28;20512;-63
2021/12/08 06:55:46;;;;;;;9.95;4.85;;;;;;;;;;4992600;28;20054;-62
2021/12/08 06:58:18;;;;;;;6.22;4.18;;;;;;;;;;4990771;28;20065;-62
2021/12/08 07:01:12;;;;;;;8.88;4.80;;;;;;;;;;4991650;28;20430;-63
2021/12/08 07:03:50;;;;;;;;;;;;;;;;;;5000221;28;20100;-65
2021/12/08 07:06:43;;;;;;;6.05;4.75;;;;;;;;;;5011643;28;19921;-65
2021/12/08 07:09:14;;;;;;;8.43;5.45;;;;;;;;;;5011799;28;20204;-64
2021/12/08 07:11:42;;;;;;;10.35;4.95;;;;;;;;;;5011517;28;20096;-63
2021/12/08 07:14:08;;;;;;;9.70;5.10;;;;;;;;;;5011581;28;20054;-65
2021/12/08 07:16:40;;;;;;;7.03;4.93;;;;;;;;;;5007701;28;20042;-63
2021/12/08 07:19:22;;;;;;;9.93;4.90;;;;;;;;;;4992115;28;20097;-63
2021/12/08 07:21:49;;;;;;;12.82;6.57;;;;;;;;;;4992109;28;20105;-64
2021/12/08 07:24:31;;;;;;;13.77;6.53;;;;;;;;;;4991458;28;20292;-62
2021/12/08 07:27:02;;;;;;;24.27;10.18;;;;;;;;;;4992035;28;20050;-63
2021/12/08 07:29:33;;;;;;;26.42;12.38;;;;;;;;;;4990751;28;20115;-65
2021/12/08 07:32:08;;;;;;;16.33;9.68;;;;;;;;;;5002011;28;20054;-68
2021/12/08 07:34:36;;;;;;;19.27;9.30;;;;;;;;;;5015613;28;20072;-66
2021/12/08 07:37:15;;;;;;;12.40;8.15;;;;;;;;;;5019338;28;20107;-67
2021/12/08 07:39:51;;;;;;;14.32;8.32;;;;;;;;;;5017221;28;20046;-68
2021/12/08 07:42:20;;;;;;;;;;;;;;;;;;5018300;28;20045;-68
2021/12/08 07:44:53;;;;;;;14.02;8.38;;;;;;;;;;5017624;28;19921;-67
2021/12/08 07:47:22;;;;;;;15.27;8.48;;;;;;;;;;5018901;28;20120;-67
2021/12/08 07:50:04;;;;;;;15.43;8.85;;;;;;;;;;5017602;28;20057;-70
2021/12/08 07:52:34;;;;;;;12.10;7.68;;;;;;;;;;5015739;28;20054;-68
2021/12/08 07:55:05;;;;;;;14.85;8.38;;;;;;;;;;5019776;28;20050;-66
2021/12/08 07:57:34;;;;;;;10.40;7.88;;;;;;;;;;5020835;28;20488;-69
2021/12/08 08:00:31;;;;;;;12.88;8.15;;;;;;;;;;5021329;28;20056;-67
2021/12/08 08:02:58;;;;;;;13.38;8.85;;;;;;;;;;4990358;28;20117;-66
2021/12/08 08:05:32;;;;;;;13.68;7.97;;;;;;;;;;5022551;28;20071;-66
2021/12/08 08:08:03;;;;;;;12.27;6.82;;;;;;;;;;5021871;28;20053;-66
2021/12/08 08:10:43;;;;;;;16.25;8.10;;;;;;;;;;5022173;28;20124;-69
2021/12/08 08:13:11;;;;;;;15.93;8.68;;;;;;;;;;5017811;28;20111;-67
2021/12/08 08:15:44;;;;;;;20.40;8.15;;;;;;;;;;5023207;28;20049;-67
2021/12/08 08:18:18;;;;;;;11.57;7.25;;;;;;;;;;5020807;28;20049;-66
2021/12/08 08:20:50;;;;;;;10.95;7.25;;;;;;;;;;5022825;28;20050;-66
2021/12/08 08:23:19;;;;;;;14.00;5.90;;;;;;;;;;5016286;28;20057;-68
2021/12/08 08:25:47;;;;;;;9.50;5.50;;;;;;;;;;5019415;28;20071;-67
2021/12/08 08:28:16;;;;;;;10.63;5.40;;;;;;;;;;5023991;28;20053;-67
2021/12/08 08:30:48;;;;;;;8.73;5.53;;;;;;;;;;5019526;28;20046;-69
2021/12/08 08:33:15;;;;;;;8.18;5.78;;;;;;;;;;5022958;28;20053;-67
2021/12/08 08:35:48;;;;;;;10.50;4.97;;;;;;;;;;5023780;28;20241;-65
2021/12/08 08:38:21;;;;;;;12.30;4.60;;;;;;;;;;5021862;28;20072;-66
2021/12/08 08:40:51;;;;;;;6.65;4.82;;;;;;;;;;5018427;28;20045;-66
2021/12/08 08:43:19;;;;;;;7.57;4.70;;;;;;;;;;5019845;28;20053;-66
2021/12/08 08:45:57;;;;;;;8.23;4.72;;;;;;;;;;5019667;28;20045;-67
2021/12/08 08:48:32;;;;;;;8.73;4.63;;;;;;;;;;5024119;28;20049;-68
2021/12/08 08:51:10;;;;;;;5.90;4.78;;;;;;;;;;5020360;28;20135;-68
2021/12/08 08:53:38;;;;;;;8.38;5.38;;;;;;;;;;5022568;28;20057;-66
2021/12/08 08:56:08;;;;;;;6.72;4.97;;;;;;;;;;5016964;28;20136;-68
2021/12/08 08:58:43;;;;;;;7.40;4.70;;;;;;;;;;5019403;28;20095;-68
2021/12/08 09:01:19;;;;;;;5.55;4.63;;;;;;;;;;5020685;28;20076;-65
2021/12/08 09:04:01;;;;;;;7.78;4.97;;;;;;;;;;5023272;28;20103;-66
2021/12/08 09:06:31;;;;;;;8.85;5.40;;;;;;;;;;5015488;28;20068;-67
2021/12/08 09:09:02;;;;;;;8.88;5.05;;;;;;;;;;5019976;28;20050;-66
2021/12/08 09:11:37;;;;;;;8.55;5.07;;;;;;;;;;5021155;28;20058;-64
2021/12/08 09:14:09;;;;;;;9.18;5.68;;;;;;;;;;5021217;28;20045;-66
2021/12/08 09:16:43;;;;;;;6.63;4.80;;;;;;;;;;5021160;28;20057;-66
2021/12/08 09:19:14;;;;;;;6.88;5.10;;;;;;;;;;5020819;28;20058;-65
2021/12/08 09:22:00;;;;;;;10.50;5.68;;;;;;;;;;5019316;28;20104;-66
2021/12/08 09:24:57;;;;;;;9.20;5.97;;;;;;;;;;5024003;28;20516;-65
2021/12/08 09:27:37;;;;;;;9.52;6.50;;;;;;;;;;5027525;28;20061;-65
2021/12/08 09:30:16;;;;;;;9.07;6.43;;;;;;;;;;5021251;28;20053;-66
2021/12/08 09:32:48;;;;;;;12.55;6.40;;;;;;;;;;5023832;28;20045;-66
2021/12/08 09:35:29;;;;;;;8.65;5.90;;;;;;;;;;5021692;28;20132;-66
2021/12/08 09:38:04;;;;;;;7.55;5.70;;;;;;;;;;5020414;28;20056;-64
2021/12/08 09:40:37;;;;;;;10.25;6.20;;;;;;;;;;5024625;28;20061;-65
2021/12/08 09:43:10;;;;;;;8.88;6.38;;;;;;;;;;5022300;28;20064;-68
2021/12/08 09:45:52;;;;;;;9.38;6.00;;;;;;;;;;5022101;28;20057;-67
2021/12/08 09:48:19;;;;;;;10.57;7.15;;;;;;;;;;5027375;28;20412;-69
2021/12/08 09:50:45;;;;;;;9.70;7.18;;;;;;;;;;5026493;28;20480;-70
2021/12/08 09:53:13;;;;;;;10.40;6.20;;;;;;;;;;5023427;28;20045;-67
2021/12/08 09:55:39;;;;;;;8.35;6.32;;;;;;;;;;5023053;28;20453;-67
2021/12/08 09:58:07;;;;;;;9.18;6.75;;;;;;;;;;5025179;28;20042;-67
2021/12/08 10:00:38;;;;;;;10.45;6.20;;;;;;;;;;5021228;28;20049;-66
2021/12/08 10:03:05;;;;;;;7.60;5.70;;;;;;;;;;5026461;28;20056;-65
2021/12/08 10:05:34;;;;;;;8.25;6.15;;;;;;;;;;5044747;22;20049;-67
2021/12/08 10:08:04;;;;;;;7.45;6.30;;;;;;;;;;5002288;28;20074;-67
2021/12/08 10:10:31;;;;;;;8.80;6.28;;;;;;;;;;5001172;28;20054;-66
2021/12/08 10:12:57;;;;;;;10.43;7.03;;;;;;;;;;5001546;28;20215;-66
2021/12/08 10:15:24;;;;;;;12.50;6.65;;;;;;;;;;5000517;28;20050;-66
2021/12/08 10:17:51;;;;;;;10.63;6.78;;;;;;;;;;5003602;28;20493;-67
2021/12/08 10:20:27;;;;;;;9.10;6.10;;;;;;;;;;4999791;28;20050;-67
2021/12/08 10:23:34;;;;;;;8.27;5.40;;;;;;;;;;5001775;28;20452;-68
2021/12/08 10:26:07;;;;;;;6.07;4.70;;;;;;;;;;4961561;28;20500;-64
2021/12/08 10:28:55;;;;;;;8.23;5.07;;;;;;;;;;5007141;28;20516;-66
2021/12/08 10:31:30;;;;;;;5.70;4.13;;;;;;;;;;5002238;28;20116;-64
2021/12/08 10:34:22;;;;;;;8.10;5.25;;;;;;;;;;4999777;28;20057;-64
2021/12/08 10:37:05;;;;;;;7.07;5.32;;;;;;;;;;4998731;28;20050;-64
2021/12/08 10:39:45;;;;;;;6.07;4.47;;;;;;;;;;5003515;28;20463;-65
2021/12/08 10:42:18;;;;;;;7.07;4.50;;;;;;;;;;5001814;28;20451;-63
2021/12/08 10:45:02;;;;;;;6.93;5.63;;;;;;;;;;5000449;28;20058;-66
2021/12/08 10:47:36;;;;;;;7.82;5.22;;;;;;;;;;5002253;28;20109;-64
2021/12/08 10:55:58;;;;;;;8.05;4.93;;;;;;;;;;5004742;28;20054;-67
2021/12/08 10:58:28;;;;;;;8.13;5.95;;;;;;;;;;5006929;28;20080;-65
2021/12/08 11:00:57;;;;;;;8.93;5.90;;;;;;;;;;5004560;28;20057;-72
2021/12/08 11:03:29;;;;;;;7.75;5.65;;;;;;;;;;5003621;28;20275;-71
2021/12/08 11:06:01;;;;;;;6.95;5.07;;;;;;;;;;4997619;28;20085;-69
2021/12/08 11:08:29;;;;;;;7.43;5.73;;;;;;;;;;5004711;28;20460;-66
2021/12/08 11:11:25;;;;;;;8.70;5.10;;;;;;;;;;5001055;28;20297;-67
2021/12/08 11:13:56;;;;;;;6.53;4.68;;;;;;;;;;4996354;28;20046;-64
2021/12/08 11:16:29;;;;;;;6.28;4.97;;;;;;;;;;4998893;28;20058;-64
2021/12/08 11:19:08;;;;;;;8.00;5.80;;;;;;;;;;5005413;28;20046;-64
2021/12/08 11:21:39;;;;;;;6.35;4.88;;;;;;;;;;5000271;28;20058;-64
2021/12/08 11:24:14;;;;;;;;;;;;;;;;;;5004825;28;20141;-66
2021/12/08 11:26:44;;;;;;;6.30;4.45;;;;;;;;;;5000575;28;19921;-67
2021/12/08 11:29:22;;;;;;;9.77;4.43;;;;;;;;;;4999602;28;20059;-67
2021/12/08 11:31:54;;;;;;;7.43;5.30;;;;;;;;;;5002126;28;20421;-67
2021/12/08 11:34:27;;;;;;;8.43;6.23;;;;;;;;;;5001726;28;20053;-69
2021/12/08 11:37:20;;;;;;;6.83;5.50;;;;;;;;;;5002025;28;20301;-67
2021/12/08 11:39:58;;;;;;;7.38;5.05;;;;;;;;;;5001927;28;20058;-67
2021/12/08 11:42:31;;;;;;;6.38;5.03;;;;;;;;;;5004056;28;20552;-68
2021/12/08 11:45:00;;;;;;;6.03;4.47;;;;;;;;;;5000366;28;20056;-66
2021/12/08 11:47:35;;;;;;;7.30;5.40;;;;;;;;;;4998062;28;20133;-67
2021/12/08 11:50:10;;;;;;;6.45;4.82;;;;;;;;;;5003381;28;20057;-69
2021/12/08 11:52:37;;;;;;;7.13;4.75;;;;;;;;;;5002264;28;20130;-68
2021/12/08 11:55:07;;;;;;;9.93;5.13;;;;;;;;;;4998961;28;20054;-68
2021/12/08 11:57:46;;;;;;;5.45;4.80;;;;;;;;;;5002546;28;20050;-68
2021/12/08 12:00:19;;;;;;;7.13;4.90;;;;;;;;;;5002632;28;20050;-69
2021/12/08 12:03:02;;;;;;;7.47;4.90;;;;;;;;;;5001424;28;20050;-68
2021/12/08 12:05:49;;;;;;;5.30;4.10;;;;;;;;;;5004429;28;20159;-63
2021/12/08 12:08:18;;;;;;;6.45;4.68;;;;;;;;;;5000612;28;20053;-63
2021/12/08 12:10:47;;;;;;;7.28;5.65;;;;;;;;;;5007482;28;20052;-63
2021/12/08 12:13:14;;;;;;;8.05;5.40;;;;;;;;;;5004160;28;20488;-64
2021/12/08 12:15:44;;;;;;;6.35;5.20;;;;;;;;;;5006157;28;20060;-65
2021/12/08 12:18:11;;;;;;;6.63;5.25;;;;;;;;;;5001657;28;20080;-67
2021/12/08 12:20:52;;;;;;;8.52;6.47;;;;;;;;;;5002238;28;20093;-64
2021/12/08 12:23:31;;;;;;;11.05;7.80;;;;;;;;;;5005116;28;20046;-64
2021/12/08 12:26:06;;;;;;;12.18;7.15;;;;;;;;;;5006742;28;20080;-65
2021/12/08 12:28:45;;;;;;;12.20;6.50;;;;;;;;;;5004939;28;20053;-64
2021/12/08 12:31:30;;;;;;;10.13;5.65;;;;;;;;;;4997947;28;20505;-65
2021/12/08 12:33:57;;;;;;;12.20;6.90;;;;;;;;;;5001595;28;20130;-64
2021/12/08 12:36:31;;;;;;;12.20;7.13;;;;;;;;;;5002802;28;20050;-65
2021/12/08 12:39:11;;;;;;;10.13;7.72;;;;;;;;;;5005999;28;20050;-65
2021/12/08 12:41:42;;;;;;;8.90;6.60;;;;;;;;;;5006762;28;20149;-65
2021/12/08 12:44:17;;;;;;;8.57;6.43;;;;;;;;;;5009546;28;20049;-65
2021/12/08 12:47:25;;;;;;;11.98;7.32;;;;;;;;;;5008271;28;20116;-64
2021/12/08 12:50:04;;;;;;;12.93;9.10;;;;;;;;;;4984095;28;20042;-65
2021/12/08 12:52:42;;;;;;;9.27;7.20;;;;;;;;;;4999123;28;20173;-65
2021/12/08 12:55:19;;;;;;;10.90;6.95;;;;;;;;;;5001318;28;20057;-64
2021/12/08 12:58:04;;;;;;;13.80;8.20;;;;;;;;;;5000876;28;20049;-65
2021/12/08 13:00:48;;;;;;;9.93;7.13;;;;;;;;;;4996085;28;20074;-65
2021/12/08 13:03:34;;;;;;;8.90;6.40;;;;;;;;;;5002205;28;20477;-65
2021/12/08 13:06:02;;;;;;;10.13;6.72;;;;;;;;;;4998023;28;20045;-65
2021/12/08 13:08:33;;;;;;;7.78;5.80;;;;;;;;;;4997521;28;20587;-65
2021/12/08 13:11:10;;;;;;;10.63;7.50;;;;;;;;;;4999929;28;20046;-65
2021/12/08 13:13:57;;;;;;;9.52;6.00;;;;;;;;;;4998062;28;20042;-65
2021/12/08 13:16:26;;;;;;;7.22;5.40;;;;;;;;;;4994226;28;20053;-64
2021/12/08 13:19:03;;;;;;;11.82;5.95;;;;;;;;;;5004087;28;20070;-65
2021/12/08 13:21:49;;;;;;;8.93;5.78;;;;;;;;;;4999829;28;20493;-65
2021/12/08 13:24:43;;;;;;;10.25;6.80;;;;;;;;;;4999660;28;20468;-65
2021/12/08 13:27:16;;;;;;;6.65;5.72;;;;;;;;;;4992625;28;20058;-64
2021/12/08 13:29:46;;;;;;;8.30;6.10;;;;;;;;;;4999659;28;20533;-64
2021/12/08 13:32:16;;;;;;;9.57;5.95;;;;;;;;;;4999098;28;20472;-66
2021/12/08 13:34:54;;;;;;;7.55;5.47;;;;;;;;;;5005067;28;20053;-68
2021/12/08 13:37:25;;;;;;;7.72;6.20;;;;;;;;;;4999964;28;20054;-64
2021/12/08 13:39:53;;;;;;;8.00;5.80;;;;;;;;;;4998129;28;20046;-65
2021/12/08 13:42:48;;;;;;;7.70;5.35;;;;;;;;;;5001672;28;20121;-65
2021/12/08 13:45:16;;;;;;;5.70;5.00;;;;;;;;;;4998225;28;20111;-69
2021/12/08 13:47:45;;;;;;;7.80;6.00;;;;;;;;;;4997978;28;20042;-67
2021/12/08 13:50:12;;;;;;;8.43;5.80;;;;;;;;;;4996670;28;20584;-67
2021/12/08 13:53:10;;;;;;;8.75;5.80;;;;;;;;;;5000006;28;20104;-67
2021/12/08 13:55:43;;;;;;;7.95;5.65;;;;;;;;;;4999028;28;20052;-64
2021/12/08 13:58:14;;;;;;;8.45;5.93;;;;;;;;;;4998761;28;20456;-64
2021/12/08 14:00:49;;;;;;;10.23;6.13;;;;;;;;;;5000034;28;20050;-64
2021/12/08 14:03:21;;;;;;;9.20;6.45;;;;;;;;;;4997222;28;20409;-61
2021/12/08 14:05:50;;;;;;;9.23;6.65;;;;;;;;;;4996692;28;20513;-64
2021/12/08 14:08:22;;;;;;;13.30;6.55;;;;;;;;;;4998379;28;20077;-66
2021/12/08 14:10:54;;;;;;;11.55;6.47;;;;;;;;;;4998478;28;20104;-64
2021/12/08 14:13:26;;;;;;;9.40;6.45;;;;;;;;;;5005559;28;20098;-64
2021/12/08 14:15:56;;;;;;;10.93;6.45;;;;;;;;;;5001841;28;20081;-64
2021/12/08 14:18:30;;;;;;;11.57;7.30;;;;;;;;;;5000172;28;20497;-64
2021/12/08 14:21:21;;;;;;;14.48;8.02;;;;;;;;;;5003550;28;20049;-65
2021/12/08 14:24:15;;;;;;;11.90;6.57;;;;;;;;;;5004270;28;20046;-67
2021/12/08 14:26:47;;;;;;;8.82;6.55;;;;;;;;;;4997191;28;20046;-68
2021/12/08 14:29:15;;;;;;;7.75;6.65;;;;;;;;;;5001209;28;20484;-67
2021/12/08 14:31:47;;;;;;;9.85;7.15;;;;;;;;;;5003259;28;20509;-68
2021/12/08 14:34:21;;;;;;;10.77;8.07;;;;;;;;;;5003988;28;20064;-67
2021/12/08 14:36:56;;;;;;;12.55;8.10;;;;;;;;;;4999447;28;20784;-69
2021/12/08 14:39:26;;;;;;;10.07;7.47;;;;;;;;;;5003082;28;20054;-66
2021/12/08 14:41:54;;;;;;;10.68;7.68;;;;;;;;;;5003772;28;20074;-69
2021/12/08 14:44:30;;;;;;;9.45;7.53;;;;;;;;;;4999501;28;20047;-71
2021/12/08 14:47:05;;;;;;;10.32;7.75;;;;;;;;;;5001249;28;20100;-67
2021/12/08 14:49:32;;;;;;;11.73;8.25;;;;;;;;;;5001583;28;20058;-67
2021/12/08 14:52:13;;;;;;;13.98;7.90;;;;;;;;;;4999849;28;20101;-67
2021/12/08 14:54:43;;;;;;;10.02;7.85;;;;;;;;;;5005035;28;20050;-68
2021/12/08 14:57:16;;;;;;;12.80;8.13;;;;;;;;;;4999956;28;20061;-68
2021/12/08 14:59:45;;;;;;;13.05;7.60;;;;;;;;;;5005573;28;20049;-68
2021/12/08 15:02:14;;;;;;;9.35;7.50;;;;;;;;;;5007361;28;20062;-67
2021/12/08 15:04:40;;;;;;;10.88;7.47;;;;;;;;;;5014310;28;20457;-67
2021/12/08 15:07:08;;;;;;;13.30;8.18;;;;;;;;;;5002933;28;20085;-66
2021/12/08 15:09:35;;;;;;;12.90;7.72;;;;;;;;;;4998585;28;20054;-66
2021/12/08 15:12:03;;;;;;;10.48;8.13;;;;;;;;;;5002214;28;20153;-66
2021/12/08 15:14:38;;;;;;;11.35;8.93;;;;;;;;;;5001018;28;20051;-66
2021/12/08 15:17:05;;;;;;;14.90;9.35;;;;;;;;;;5001713;28;20062;-64
2021/12/08 15:19:32;;;;;;;14.52;10.95;;;;;;;;;;5000645;28;20050;-66
2021/12/08 15:22:06;;;;;;;14.57;10.38;;;;;;;;;;4998197;28;20050;-67
2021/12/08 15:24:33;;;;;;;14.82;9.63;;;;;;;;;;5002068;28;20100;-67
2021/12/08 15:27:10;;;;;;;11.43;8.27;;;;;;;;;;4999062;28;20568;-67
2021/12/08 15:29:42;;;;;;;11.20;8.98;;;;;;;;;;5003419;28;20053;-67
2021/12/08 15:32:15;;;;;;;16.65;11.02;;;;;;;;;;4999970;28;20062;-65
2021/12/08 15:34:43;;;;;;;12.32;9.60;;;;;;;;;;4998986;28;20390;-64
2021/12/08 15:37:16;;;;;;;19.58;10.63;;;;;;;;;;5002667;28;20115;-65
2021/12/08 15:39:44;;;;;;;19.85;12.82;;;;;;;;;;5002464;28;20473;-65
2021/12/08 15:42:14;;;;;;;18.40;12.18;;;;;;;;;;4999740;28;20168;-65
2021/12/08 15:44:41;;;;;;;15.10;9.90;;;;;;;;;;5002451;28;20048;-66
2021/12/08 15:47:10;;;;;;;14.10;10.52;;;;;;;;;;4996996;28;20108;-65
2021/12/08 15:49:39;;;;;;;16.85;10.77;;;;;;;;;;5004214;28;20061;-63
2021/12/08 15:52:17;;;;;;;16.75;10.43;;;;;;;;;;5003943;28;20049;-67
2021/12/08 15:54:44;;;;;;;13.50;10.38;;;;;;;;;;5001732;28;20143;-65